sensor_id;sensor_type;location;lat;lon;timestamp;temperature;humidity
29353;DHT22;16344;50.364;8.944;2023-07-29T00:00:44;19.60;4.70
29353;DHT22;16344;50.364;8.944;2023-07-29T00:03:10;19.70;1.20
29353;DHT22;16344;50.364;8.944;2023-07-29T00:05:37;19.70;1.00
29353;DHT22;16344;50.364;8.944;2023-07-29T00:08:02;19.70;1.00
29353;DHT22;16344;50.364;8.944;2023-07-29T00:10:31;19.70;1.00
29353;DHT22;16344;50.364;8.944;2023-07-29T00:12:57;19.70;1.00
29353;DHT22;16344;50.364;8.944;2023-07-29T00:15:23;19.70;1.00
29353;DHT22;16344;50.364;8.944;2023-07-29T00:17:48;19.70;1.00
29353;DHT22;16344;50.364;8.944;2023-07-29T00:20:14;19.70;1.00
29353;DHT22;16344;50.364;8.944;2023-07-29T00:22:40;19.70;1.00
29353;DHT22;16344;50.364;8.944;2023-07-29T00:25:06;19.70;1.40
29353;DHT22;16344;50.364;8.944;2023-07-29T00:27:32;19.70;1.00
29353;DHT22;16344;50.364;8.944;2023-07-29T00:29:58;19.80;1.00
29353;DHT22;16344;50.364;8.944;2023-07-29T00:32:25;19.80;1.00
29353;DHT22;16344;50.364;8.944;2023-07-29T00:34:51;19.70;1.00
29353;DHT22;16344;50.364;8.944;2023-07-29T00:37:16;19.70;1.50
29353;DHT22;16344;50.364;8.944;2023-07-29T00:39:42;19.80;1.00
29353;DHT22;16344;50.364;8.944;2023-07-29T00:42:08;19.80;1.00
29353;DHT22;16344;50.364;8.944;2023-07-29T00:44:34;19.80;1.00
29353;DHT22;16344;50.364;8.944;2023-07-29T00:47:02;19.80;1.00
29353;DHT22;16344;50.364;8.944;2023-07-29T00:49:29;19.80;1.00
29353;DHT22;16344;50.364;8.944;2023-07-29T00:51:54;19.80;1.00
29353;DHT22;16344;50.364;8.944;2023-07-29T00:54:20;19.70;1.60
29353;DHT22;16344;50.364;8.944;2023-07-29T00:56:46;19.80;1.90
29353;DHT22;16344;50.364;8.944;2023-07-29T00:59:11;19.70;1.40
29353;DHT22;16344;50.364;8.944;2023-07-29T01:01:38;19.70;2.90
29353;DHT22;16344;50.364;8.944;2023-07-29T01:04:04;19.70;2.70
29353;DHT22;16344;50.364;8.944;2023-07-29T01:06:46;19.70;4.80
29353;DHT22;16344;50.364;8.944;2023-07-29T01:09:24;19.70;5.00
29353;DHT22;16344;50.364;8.944;2023-07-29T01:15:24;19.50;6.70
29353;DHT22;16344;50.364;8.944;2023-07-29T01:17:52;19.50;10.20
29353;DHT22;16344;50.364;8.944;2023-07-29T01:20:19;19.40;11.50
29353;DHT22;16344;50.364;8.944;2023-07-29T01:22:46;19.50;12.60
29353;DHT22;16344;50.364;8.944;2023-07-29T01:25:15;19.50;10.50
29353;DHT22;16344;50.364;8.944;2023-07-29T01:27:46;19.50;7.50
29353;DHT22;16344;50.364;8.944;2023-07-29T01:30:12;19.40;6.90
29353;DHT22;16344;50.364;8.944;2023-07-29T01:32:59;19.50;9.70
29353;DHT22;16344;50.364;8.944;2023-07-29T01:38:17;19.50;9.60
29353;DHT22;16344;50.364;8.944;2023-07-29T01:40:44;19.60;8.00
29353;DHT22;16344;50.364;8.944;2023-07-29T01:43:10;19.60;3.40
29353;DHT22;16344;50.364;8.944;2023-07-29T01:45:36;19.50;3.80
29353;DHT22;16344;50.364;8.944;2023-07-29T01:48:07;19.50;5.30
29353;DHT22;16344;50.364;8.944;2023-07-29T01:50:33;19.50;7.70
29353;DHT22;16344;50.364;8.944;2023-07-29T01:52:59;19.50;5.00
29353;DHT22;16344;50.364;8.944;2023-07-29T01:55:24;19.40;3.10
29353;DHT22;16344;50.364;8.944;2023-07-29T01:57:50;19.40;5.40
29353;DHT22;16344;50.364;8.944;2023-07-29T02:00:16;19.40;4.70
29353;DHT22;16344;50.364;8.944;2023-07-29T02:02:42;19.30;4.80
29353;DHT22;16344;50.364;8.944;2023-07-29T02:05:07;19.30;8.00
29353;DHT22;16344;50.364;8.944;2023-07-29T02:07:33;19.30;6.70
29353;DHT22;16344;50.364;8.944;2023-07-29T02:09:59;19.30;5.70
29353;DHT22;16344;50.364;8.944;2023-07-29T02:12:24;19.30;6.30
29353;DHT22;16344;50.364;8.944;2023-07-29T02:14:50;19.30;5.60
29353;DHT22;16344;50.364;8.944;2023-07-29T02:17:15;19.40;6.20
29353;DHT22;16344;50.364;8.944;2023-07-29T02:19:41;19.30;5.20
29353;DHT22;16344;50.364;8.944;2023-07-29T02:22:06;19.30;4.30
29353;DHT22;16344;50.364;8.944;2023-07-29T02:24:32;19.30;5.30
29353;DHT22;16344;50.364;8.944;2023-07-29T02:26:57;19.30;5.10
29353;DHT22;16344;50.364;8.944;2023-07-29T02:29:23;19.40;3.50
29353;DHT22;16344;50.364;8.944;2023-07-29T02:31:50;19.30;4.50
29353;DHT22;16344;50.364;8.944;2023-07-29T02:34:15;19.30;3.40
29353;DHT22;16344;50.364;8.944;2023-07-29T02:36:41;19.40;3.70
29353;DHT22;16344;50.364;8.944;2023-07-29T02:39:06;19.40;2.40
29353;DHT22;16344;50.364;8.944;2023-07-29T02:41:32;19.40;2.50
29353;DHT22;16344;50.364;8.944;2023-07-29T02:43:57;19.30;4.70
29353;DHT22;16344;50.364;8.944;2023-07-29T02:46:23;19.30;6.60
29353;DHT22;16344;50.364;8.944;2023-07-29T02:48:50;19.30;5.70
29353;DHT22;16344;50.364;8.944;2023-07-29T02:51:15;19.30;5.70
29353;DHT22;16344;50.364;8.944;2023-07-29T02:53:41;19.30;5.20
29353;DHT22;16344;50.364;8.944;2023-07-29T02:56:06;19.30;3.30
29353;DHT22;16344;50.364;8.944;2023-07-29T02:58:34;19.40;1.20
29353;DHT22;16344;50.364;8.944;2023-07-29T03:01:04;19.30;1.30
29353;DHT22;16344;50.364;8.944;2023-07-29T03:03:30;19.20;5.70
29353;DHT22;16344;50.364;8.944;2023-07-29T03:06:00;19.20;7.90
29353;DHT22;16344;50.364;8.944;2023-07-29T03:08:26;19.20;7.00
29353;DHT22;16344;50.364;8.944;2023-07-29T03:10:52;19.20;6.70
29353;DHT22;16344;50.364;8.944;2023-07-29T03:13:17;19.20;6.40
29353;DHT22;16344;50.364;8.944;2023-07-29T03:15:43;19.30;6.30
29353;DHT22;16344;50.364;8.944;2023-07-29T03:18:08;19.30;7.20
29353;DHT22;16344;50.364;8.944;2023-07-29T03:20:34;19.30;5.30
29353;DHT22;16344;50.364;8.944;2023-07-29T03:22:59;19.30;5.10
29353;DHT22;16344;50.364;8.944;2023-07-29T03:25:25;19.30;5.20
29353;DHT22;16344;50.364;8.944;2023-07-29T03:27:50;19.40;4.30
29353;DHT22;16344;50.364;8.944;2023-07-29T03:30:19;19.30;8.80
29353;DHT22;16344;50.364;8.944;2023-07-29T03:32:46;19.30;10.40
29353;DHT22;16344;50.364;8.944;2023-07-29T03:35:11;19.20;12.30
29353;DHT22;16344;50.364;8.944;2023-07-29T03:37:37;19.10;15.00
29353;DHT22;16344;50.364;8.944;2023-07-29T03:40:03;19.00;19.00
29353;DHT22;16344;50.364;8.944;2023-07-29T03:42:29;19.00;20.90
29353;DHT22;16344;50.364;8.944;2023-07-29T03:44:55;18.90;21.60
29353;DHT22;16344;50.364;8.944;2023-07-29T03:47:20;19.00;22.10
29353;DHT22;16344;50.364;8.944;2023-07-29T03:49:46;19.00;22.30
29353;DHT22;16344;50.364;8.944;2023-07-29T03:52:11;19.00;21.00
29353;DHT22;16344;50.364;8.944;2023-07-29T03:54:37;19.00;21.70
29353;DHT22;16344;50.364;8.944;2023-07-29T03:57:03;19.00;21.70
29353;DHT22;16344;50.364;8.944;2023-07-29T03:59:28;19.00;23.30
29353;DHT22;16344;50.364;8.944;2023-07-29T04:01:54;19.00;23.60
29353;DHT22;16344;50.364;8.944;2023-07-29T04:04:20;19.00;23.00
29353;DHT22;16344;50.364;8.944;2023-07-29T04:06:46;19.10;23.60
29353;DHT22;16344;50.364;8.944;2023-07-29T04:09:11;19.10;23.40
29353;DHT22;16344;50.364;8.944;2023-07-29T04:11:37;19.10;22.50
29353;DHT22;16344;50.364;8.944;2023-07-29T04:14:02;19.00;23.40
29353;DHT22;16344;50.364;8.944;2023-07-29T04:16:28;19.00;24.60
29353;DHT22;16344;50.364;8.944;2023-07-29T04:18:54;19.00;24.90
29353;DHT22;16344;50.364;8.944;2023-07-29T04:21:19;19.00;25.90
29353;DHT22;16344;50.364;8.944;2023-07-29T04:23:45;19.00;26.50
29353;DHT22;16344;50.364;8.944;2023-07-29T04:26:10;19.00;26.00
29353;DHT22;16344;50.364;8.944;2023-07-29T04:28:36;19.00;26.70
29353;DHT22;16344;50.364;8.944;2023-07-29T04:31:01;19.10;26.50
29353;DHT22;16344;50.364;8.944;2023-07-29T04:35:54;19.10;27.80
29353;DHT22;16344;50.364;8.944;2023-07-29T04:38:19;19.10;26.80
29353;DHT22;16344;50.364;8.944;2023-07-29T04:40:44;19.10;26.60
29353;DHT22;16344;50.364;8.944;2023-07-29T04:43:10;19.10;26.20
29353;DHT22;16344;50.364;8.944;2023-07-29T04:45:36;19.10;26.40
29353;DHT22;16344;50.364;8.944;2023-07-29T04:48:01;19.20;27.50
29353;DHT22;16344;50.364;8.944;2023-07-29T04:50:27;19.10;27.90
29353;DHT22;16344;50.364;8.944;2023-07-29T04:52:52;19.10;27.60
29353;DHT22;16344;50.364;8.944;2023-07-29T04:55:18;19.10;27.50
29353;DHT22;16344;50.364;8.944;2023-07-29T04:57:44;19.20;26.30
29353;DHT22;16344;50.364;8.944;2023-07-29T05:00:10;19.30;24.40
29353;DHT22;16344;50.364;8.944;2023-07-29T05:02:35;19.30;24.40
29353;DHT22;16344;50.364;8.944;2023-07-29T05:05:01;19.30;24.80
29353;DHT22;16344;50.364;8.944;2023-07-29T05:07:27;19.30;23.10
29353;DHT22;16344;50.364;8.944;2023-07-29T05:09:52;19.30;22.30
29353;DHT22;16344;50.364;8.944;2023-07-29T05:12:18;19.40;21.50
29353;DHT22;16344;50.364;8.944;2023-07-29T05:14:43;19.50;22.40
29353;DHT22;16344;50.364;8.944;2023-07-29T05:17:09;19.40;22.40
29353;DHT22;16344;50.364;8.944;2023-07-29T05:19:35;19.40;22.00
29353;DHT22;16344;50.364;8.944;2023-07-29T05:22:00;19.40;22.10
29353;DHT22;16344;50.364;8.944;2023-07-29T05:24:26;19.40;22.40
29353;DHT22;16344;50.364;8.944;2023-07-29T05:26:51;19.40;22.40
29353;DHT22;16344;50.364;8.944;2023-07-29T05:29:17;19.40;23.60
29353;DHT22;16344;50.364;8.944;2023-07-29T05:31:42;19.40;23.70
29353;DHT22;16344;50.364;8.944;2023-07-29T05:34:08;19.40;24.40
29353;DHT22;16344;50.364;8.944;2023-07-29T05:36:34;19.30;23.90
29353;DHT22;16344;50.364;8.944;2023-07-29T05:38:59;19.30;24.20
29353;DHT22;16344;50.364;8.944;2023-07-29T05:41:25;19.40;24.60
29353;DHT22;16344;50.364;8.944;2023-07-29T05:43:52;19.30;25.60
29353;DHT22;16344;50.364;8.944;2023-07-29T05:46:18;19.40;27.00
29353;DHT22;16344;50.364;8.944;2023-07-29T05:48:44;19.40;24.90
29353;DHT22;16344;50.364;8.944;2023-07-29T05:51:09;19.50;26.00
29353;DHT22;16344;50.364;8.944;2023-07-29T05:53:35;19.60;26.50
29353;DHT22;16344;50.364;8.944;2023-07-29T05:56:00;19.60;25.30
29353;DHT22;16344;50.364;8.944;2023-07-29T05:58:26;19.70;24.10
29353;DHT22;16344;50.364;8.944;2023-07-29T06:00:51;19.70;22.90
29353;DHT22;16344;50.364;8.944;2023-07-29T06:03:17;19.70;22.70
29353;DHT22;16344;50.364;8.944;2023-07-29T06:05:42;19.80;21.20
29353;DHT22;16344;50.364;8.944;2023-07-29T06:08:08;19.70;20.80
29353;DHT22;16344;50.364;8.944;2023-07-29T06:10:34;19.70;22.00
29353;DHT22;16344;50.364;8.944;2023-07-29T06:12:59;19.70;23.30
29353;DHT22;16344;50.364;8.944;2023-07-29T06:15:25;19.70;24.10
29353;DHT22;16344;50.364;8.944;2023-07-29T06:17:51;19.60;25.80
29353;DHT22;16344;50.364;8.944;2023-07-29T06:20:16;19.70;24.20
29353;DHT22;16344;50.364;8.944;2023-07-29T06:22:42;19.60;24.90
29353;DHT22;16344;50.364;8.944;2023-07-29T06:25:08;19.60;25.70
29353;DHT22;16344;50.364;8.944;2023-07-29T06:27:34;19.60;27.60
29353;DHT22;16344;50.364;8.944;2023-07-29T06:29:59;19.70;26.50
29353;DHT22;16344;50.364;8.944;2023-07-29T06:32:25;19.70;25.30
29353;DHT22;16344;50.364;8.944;2023-07-29T06:34:50;19.70;24.60
29353;DHT22;16344;50.364;8.944;2023-07-29T06:37:17;19.80;25.40
29353;DHT22;16344;50.364;8.944;2023-07-29T06:39:42;19.80;23.10
29353;DHT22;16344;50.364;8.944;2023-07-29T06:42:08;19.80;22.70
29353;DHT22;16344;50.364;8.944;2023-07-29T06:44:33;19.80;22.80
29353;DHT22;16344;50.364;8.944;2023-07-29T06:46:59;19.90;22.30
29353;DHT22;16344;50.364;8.944;2023-07-29T06:49:24;19.90;20.20
29353;DHT22;16344;50.364;8.944;2023-07-29T06:51:50;19.90;19.80
29353;DHT22;16344;50.364;8.944;2023-07-29T06:54:16;19.80;20.80
29353;DHT22;16344;50.364;8.944;2023-07-29T06:56:42;19.80;21.20
29353;DHT22;16344;50.364;8.944;2023-07-29T06:59:08;19.70;23.10
29353;DHT22;16344;50.364;8.944;2023-07-29T07:01:34;19.70;24.10
29353;DHT22;16344;50.364;8.944;2023-07-29T07:03:59;19.70;24.60
29353;DHT22;16344;50.364;8.944;2023-07-29T07:06:25;19.70;25.30
29353;DHT22;16344;50.364;8.944;2023-07-29T07:08:51;19.60;26.00
29353;DHT22;16344;50.364;8.944;2023-07-29T07:11:18;19.70;27.40
29353;DHT22;16344;50.364;8.944;2023-07-29T07:13:43;19.80;26.40
29353;DHT22;16344;50.364;8.944;2023-07-29T07:16:09;19.70;26.70
29353;DHT22;16344;50.364;8.944;2023-07-29T07:18:34;19.70;26.10
29353;DHT22;16344;50.364;8.944;2023-07-29T07:21:00;19.70;28.00
29353;DHT22;16344;50.364;8.944;2023-07-29T07:23:25;19.80;27.70
29353;DHT22;16344;50.364;8.944;2023-07-29T07:25:51;19.70;27.30
29353;DHT22;16344;50.364;8.944;2023-07-29T07:28:16;19.70;28.40
29353;DHT22;16344;50.364;8.944;2023-07-29T07:30:42;19.70;29.50
29353;DHT22;16344;50.364;8.944;2023-07-29T07:33:08;19.70;28.60
29353;DHT22;16344;50.364;8.944;2023-07-29T07:35:33;19.60;30.40
29353;DHT22;16344;50.364;8.944;2023-07-29T07:37:59;19.60;31.40
29353;DHT22;16344;50.364;8.944;2023-07-29T07:40:27;19.50;32.90
29353;DHT22;16344;50.364;8.944;2023-07-29T07:42:53;19.50;33.90
29353;DHT22;16344;50.364;8.944;2023-07-29T07:45:19;19.50;34.90
29353;DHT22;16344;50.364;8.944;2023-07-29T07:47:44;19.60;36.00
29353;DHT22;16344;50.364;8.944;2023-07-29T07:50:10;19.60;35.90
29353;DHT22;16344;50.364;8.944;2023-07-29T07:52:35;19.70;35.80
29353;DHT22;16344;50.364;8.944;2023-07-29T07:55:01;19.80;35.00
29353;DHT22;16344;50.364;8.944;2023-07-29T07:57:27;19.90;34.40
29353;DHT22;16344;50.364;8.944;2023-07-29T07:59:52;19.90;34.50
29353;DHT22;16344;50.364;8.944;2023-07-29T08:02:18;20.10;34.60
29353;DHT22;16344;50.364;8.944;2023-07-29T08:04:44;20.10;31.30
29353;DHT22;16344;50.364;8.944;2023-07-29T08:07:09;20.10;30.70
29353;DHT22;16344;50.364;8.944;2023-07-29T08:09:35;20.20;29.40
29353;DHT22;16344;50.364;8.944;2023-07-29T08:12:00;20.20;29.60
29353;DHT22;16344;50.364;8.944;2023-07-29T08:14:26;20.30;29.10
29353;DHT22;16344;50.364;8.944;2023-07-29T08:16:52;20.20;29.90
29353;DHT22;16344;50.364;8.944;2023-07-29T08:19:17;20.20;29.30
29353;DHT22;16344;50.364;8.944;2023-07-29T08:21:43;20.30;30.20
29353;DHT22;16344;50.364;8.944;2023-07-29T08:24:08;20.40;28.40
29353;DHT22;16344;50.364;8.944;2023-07-29T08:26:34;20.30;27.20
29353;DHT22;16344;50.364;8.944;2023-07-29T08:28:59;20.40;27.80
29353;DHT22;16344;50.364;8.944;2023-07-29T08:31:25;20.40;23.50
29353;DHT22;16344;50.364;8.944;2023-07-29T08:33:50;20.40;25.70
29353;DHT22;16344;50.364;8.944;2023-07-29T08:36:16;20.40;27.10
29353;DHT22;16344;50.364;8.944;2023-07-29T08:38:42;20.40;28.20
29353;DHT22;16344;50.364;8.944;2023-07-29T08:41:19;20.50;27.80
29353;DHT22;16344;50.364;8.944;2023-07-29T08:44:03;20.70;24.30
29353;DHT22;16344;50.364;8.944;2023-07-29T08:46:32;20.70;22.40
29353;DHT22;16344;50.364;8.944;2023-07-29T08:48:57;20.90;17.40
29353;DHT22;16344;50.364;8.944;2023-07-29T08:51:26;21.00;19.90
29353;DHT22;16344;50.364;8.944;2023-07-29T08:53:52;21.20;23.70
29353;DHT22;16344;50.364;8.944;2023-07-29T08:56:18;21.50;25.10
29353;DHT22;16344;50.364;8.944;2023-07-29T08:58:44;21.60;18.20
29353;DHT22;16344;50.364;8.944;2023-07-29T09:01:09;21.80;12.20
29353;DHT22;16344;50.364;8.944;2023-07-29T09:03:36;21.80;5.10
29353;DHT22;16344;50.364;8.944;2023-07-29T09:06:02;21.80;1.00
29353;DHT22;16344;50.364;8.944;2023-07-29T09:08:28;21.90;2.50
29353;DHT22;16344;50.364;8.944;2023-07-29T09:10:55;22.00;1.00
29353;DHT22;16344;50.364;8.944;2023-07-29T09:13:21;22.00;1.00
29353;DHT22;16344;50.364;8.944;2023-07-29T09:15:47;22.20;1.00
29353;DHT22;16344;50.364;8.944;2023-07-29T09:18:15;22.20;1.00
29353;DHT22;16344;50.364;8.944;2023-07-29T09:20:41;22.20;1.00
29353;DHT22;16344;50.364;8.944;2023-07-29T09:23:08;22.20;1.00
29353;DHT22;16344;50.364;8.944;2023-07-29T09:25:35;22.20;1.00
29353;DHT22;16344;50.364;8.944;2023-07-29T09:28:02;22.50;1.00
29353;DHT22;16344;50.364;8.944;2023-07-29T09:30:32;22.60;1.00
29353;DHT22;16344;50.364;8.944;2023-07-29T09:32:58;22.90;1.00
29353;DHT22;16344;50.364;8.944;2023-07-29T09:35:29;23.20;1.00
29353;DHT22;16344;50.364;8.944;2023-07-29T09:37:55;23.50;1.00
29353;DHT22;16344;50.364;8.944;2023-07-29T09:40:21;23.80;1.00
29353;DHT22;16344;50.364;8.944;2023-07-29T09:42:51;24.00;1.00
29353;DHT22;16344;50.364;8.944;2023-07-29T09:45:25;24.00;1.00
29353;DHT22;16344;50.364;8.944;2023-07-29T09:47:52;24.10;1.00
29353;DHT22;16344;50.364;8.944;2023-07-29T09:50:18;24.20;1.00
29353;DHT22;16344;50.364;8.944;2023-07-29T09:52:44;24.20;1.00
29353;DHT22;16344;50.364;8.944;2023-07-29T09:55:13;24.20;99.90
29353;DHT22;16344;50.364;8.944;2023-07-29T09:57:40;24.10;1.00
29353;DHT22;16344;50.364;8.944;2023-07-29T10:00:06;24.20;1.00
29353;DHT22;16344;50.364;8.944;2023-07-29T10:02:40;24.30;1.00
29353;DHT22;16344;50.364;8.944;2023-07-29T10:05:07;24.60;99.90
29353;DHT22;16344;50.364;8.944;2023-07-29T10:07:34;24.80;99.90
29353;DHT22;16344;50.364;8.944;2023-07-29T10:10:02;24.80;99.90
29353;DHT22;16344;50.364;8.944;2023-07-29T10:12:31;24.90;99.90
29353;DHT22;16344;50.364;8.944;2023-07-29T10:14:59;25.00;99.90
29353;DHT22;16344;50.364;8.944;2023-07-29T10:17:26;25.00;99.90
29353;DHT22;16344;50.364;8.944;2023-07-29T10:19:53;25.20;99.90
29353;DHT22;16344;50.364;8.944;2023-07-29T10:22:20;25.30;99.90
29353;DHT22;16344;50.364;8.944;2023-07-29T10:24:48;25.20;99.90
29353;DHT22;16344;50.364;8.944;2023-07-29T10:27:17;25.20;99.90
29353;DHT22;16344;50.364;8.944;2023-07-29T10:29:44;25.30;99.90
29353;DHT22;16344;50.364;8.944;2023-07-29T10:32:11;25.40;99.90
29353;DHT22;16344;50.364;8.944;2023-07-29T10:34:37;25.30;99.90
29353;DHT22;16344;50.364;8.944;2023-07-29T10:37:04;25.20;99.90
29353;DHT22;16344;50.364;8.944;2023-07-29T10:39:54;25.30;99.90
29353;DHT22;16344;50.364;8.944;2023-07-29T10:42:19;25.20;99.90
29353;DHT22;16344;50.364;8.944;2023-07-29T10:44:52;25.20;99.90
29353;DHT22;16344;50.364;8.944;2023-07-29T10:47:21;25.10;99.90
29353;DHT22;16344;50.364;8.944;2023-07-29T10:49:52;24.90;99.90
29353;DHT22;16344;50.364;8.944;2023-07-29T10:55:03;25.00;99.90
29353;DHT22;16344;50.364;8.944;2023-07-29T10:57:36;24.90;99.90
29353;DHT22;16344;50.364;8.944;2023-07-29T11:00:03;24.80;99.90
29353;DHT22;16344;50.364;8.944;2023-07-29T11:02:37;24.80;99.90
29353;DHT22;16344;50.364;8.944;2023-07-29T11:05:18;24.90;99.90
29353;DHT22;16344;50.364;8.944;2023-07-29T11:07:45;24.90;99.90
29353;DHT22;16344;50.364;8.944;2023-07-29T11:10:12;24.60;99.90
29353;DHT22;16344;50.364;8.944;2023-07-29T11:12:49;24.60;99.90
29353;DHT22;16344;50.364;8.944;2023-07-29T11:15:27;24.40;99.90
29353;DHT22;16344;50.364;8.944;2023-07-29T11:17:55;24.20;99.90
29353;DHT22;16344;50.364;8.944;2023-07-29T11:20:24;23.90;99.90
29353;DHT22;16344;50.364;8.944;2023-07-29T11:22:50;23.90;99.90
29353;DHT22;16344;50.364;8.944;2023-07-29T11:25:17;23.90;99.90
29353;DHT22;16344;50.364;8.944;2023-07-29T11:27:43;23.70;99.90
29353;DHT22;16344;50.364;8.944;2023-07-29T11:30:11;23.80;1.00
29353;DHT22;16344;50.364;8.944;2023-07-29T11:32:38;23.70;99.90
29353;DHT22;16344;50.364;8.944;2023-07-29T11:35:08;23.70;99.90
29353;DHT22;16344;50.364;8.944;2023-07-29T11:37:35;23.90;1.00
29353;DHT22;16344;50.364;8.944;2023-07-29T11:40:02;24.20;1.00
29353;DHT22;16344;50.364;8.944;2023-07-29T11:42:28;24.40;1.00
29353;DHT22;16344;50.364;8.944;2023-07-29T11:44:56;24.60;1.00
29353;DHT22;16344;50.364;8.944;2023-07-29T11:47:22;24.70;99.90
29353;DHT22;16344;50.364;8.944;2023-07-29T11:49:48;24.60;1.00
29353;DHT22;16344;50.364;8.944;2023-07-29T11:52:13;24.50;99.90
29353;DHT22;16344;50.364;8.944;2023-07-29T11:54:39;24.30;99.90
29353;DHT22;16344;50.364;8.944;2023-07-29T11:57:09;24.30;99.90
29353;DHT22;16344;50.364;8.944;2023-07-29T11:59:35;24.20;99.90
29353;DHT22;16344;50.364;8.944;2023-07-29T12:02:02;24.20;99.90
29353;DHT22;16344;50.364;8.944;2023-07-29T12:04:30;24.20;99.90
29353;DHT22;16344;50.364;8.944;2023-07-29T12:06:56;24.20;1.00
29353;DHT22;16344;50.364;8.944;2023-07-29T12:09:23;24.40;1.00
29353;DHT22;16344;50.364;8.944;2023-07-29T12:11:48;24.60;99.90
29353;DHT22;16344;50.364;8.944;2023-07-29T12:14:16;24.90;99.90
29353;DHT22;16344;50.364;8.944;2023-07-29T12:16:48;25.10;99.90
29353;DHT22;16344;50.364;8.944;2023-07-29T12:19:15;25.30;99.90
29353;DHT22;16344;50.364;8.944;2023-07-29T12:21:44;25.50;99.90
29353;DHT22;16344;50.364;8.944;2023-07-29T12:24:12;25.30;1.00
29353;DHT22;16344;50.364;8.944;2023-07-29T12:26:37;25.30;1.00
29353;DHT22;16344;50.364;8.944;2023-07-29T12:29:17;25.20;1.00
29353;DHT22;16344;50.364;8.944;2023-07-29T12:31:45;25.10;16.60
29353;DHT22;16344;50.364;8.944;2023-07-29T12:34:18;24.90;99.90
29353;DHT22;16344;50.364;8.944;2023-07-29T12:36:45;24.70;99.90
29353;DHT22;16344;50.364;8.944;2023-07-29T12:39:28;24.40;1.00
29353;DHT22;16344;50.364;8.944;2023-07-29T12:41:55;24.30;99.90
29353;DHT22;16344;50.364;8.944;2023-07-29T12:44:23;24.10;99.90
29353;DHT22;16344;50.364;8.944;2023-07-29T12:46:49;23.90;1.00
29353;DHT22;16344;50.364;8.944;2023-07-29T12:49:14;24.00;1.00
29353;DHT22;16344;50.364;8.944;2023-07-29T12:51:41;24.10;1.00
29353;DHT22;16344;50.364;8.944;2023-07-29T12:54:06;24.00;1.00
29353;DHT22;16344;50.364;8.944;2023-07-29T12:56:33;24.00;1.00
29353;DHT22;16344;50.364;8.944;2023-07-29T12:58:59;24.00;1.00
29353;DHT22;16344;50.364;8.944;2023-07-29T13:01:25;24.10;1.00
29353;DHT22;16344;50.364;8.944;2023-07-29T13:03:51;24.20;1.00
29353;DHT22;16344;50.364;8.944;2023-07-29T13:06:17;24.10;1.00
29353;DHT22;16344;50.364;8.944;2023-07-29T13:08:43;24.10;1.00
29353;DHT22;16344;50.364;8.944;2023-07-29T13:11:09;24.20;1.00
29353;DHT22;16344;50.364;8.944;2023-07-29T13:13:35;24.50;1.00
29353;DHT22;16344;50.364;8.944;2023-07-29T13:16:00;24.90;99.90
29353;DHT22;16344;50.364;8.944;2023-07-29T13:18:26;25.20;99.90
29353;DHT22;16344;50.364;8.944;2023-07-29T13:20:52;25.30;99.90
29353;DHT22;16344;50.364;8.944;2023-07-29T13:23:18;25.20;99.90
29353;DHT22;16344;50.364;8.944;2023-07-29T13:25:43;25.30;99.90
29353;DHT22;16344;50.364;8.944;2023-07-29T13:28:10;25.20;99.90
29353;DHT22;16344;50.364;8.944;2023-07-29T13:30:36;25.20;99.90
29353;DHT22;16344;50.364;8.944;2023-07-29T13:33:01;25.10;99.90
29353;DHT22;16344;50.364;8.944;2023-07-29T13:35:27;25.10;99.90
29353;DHT22;16344;50.364;8.944;2023-07-29T13:37:52;24.90;99.90
29353;DHT22;16344;50.364;8.944;2023-07-29T13:40:18;24.80;99.90
29353;DHT22;16344;50.364;8.944;2023-07-29T13:42:43;24.80;99.90
29353;DHT22;16344;50.364;8.944;2023-07-29T13:45:09;24.80;99.90
29353;DHT22;16344;50.364;8.944;2023-07-29T13:47:35;24.90;99.90
29353;DHT22;16344;50.364;8.944;2023-07-29T13:50:00;24.70;99.90
29353;DHT22;16344;50.364;8.944;2023-07-29T13:52:26;24.80;99.90
29353;DHT22;16344;50.364;8.944;2023-07-29T13:54:51;24.70;99.90
29353;DHT22;16344;50.364;8.944;2023-07-29T13:57:17;24.70;99.90
29353;DHT22;16344;50.364;8.944;2023-07-29T13:59:42;24.80;99.90
29353;DHT22;16344;50.364;8.944;2023-07-29T14:02:08;25.00;99.90
29353;DHT22;16344;50.364;8.944;2023-07-29T14:04:34;25.10;99.90
29353;DHT22;16344;50.364;8.944;2023-07-29T14:06:59;25.20;99.90
29353;DHT22;16344;50.364;8.944;2023-07-29T14:09:26;25.30;99.90
29353;DHT22;16344;50.364;8.944;2023-07-29T14:11:52;25.20;99.90
29353;DHT22;16344;50.364;8.944;2023-07-29T14:14:17;25.20;99.90
29353;DHT22;16344;50.364;8.944;2023-07-29T14:16:43;25.10;99.90
29353;DHT22;16344;50.364;8.944;2023-07-29T14:19:08;25.20;99.90
29353;DHT22;16344;50.364;8.944;2023-07-29T14:21:34;25.10;99.90
29353;DHT22;16344;50.364;8.944;2023-07-29T14:24:00;25.10;99.90
29353;DHT22;16344;50.364;8.944;2023-07-29T14:26:25;25.10;99.90
29353;DHT22;16344;50.364;8.944;2023-07-29T14:28:51;24.90;99.90
29353;DHT22;16344;50.364;8.944;2023-07-29T14:31:16;25.00;99.90
29353;DHT22;16344;50.364;8.944;2023-07-29T14:33:45;25.20;99.90
29353;DHT22;16344;50.364;8.944;2023-07-29T14:36:11;25.30;99.90
29353;DHT22;16344;50.364;8.944;2023-07-29T14:38:36;25.40;55.30
29353;DHT22;16344;50.364;8.944;2023-07-29T14:41:03;25.50;1.00
29353;DHT22;16344;50.364;8.944;2023-07-29T14:43:30;25.60;1.10
29353;DHT22;16344;50.364;8.944;2023-07-29T14:45:55;25.60;21.90
29353;DHT22;16344;50.364;8.944;2023-07-29T14:48:21;25.70;1.00
29353;DHT22;16344;50.364;8.944;2023-07-29T14:50:46;25.70;1.00
29353;DHT22;16344;50.364;8.944;2023-07-29T14:53:12;25.70;1.00
29353;DHT22;16344;50.364;8.944;2023-07-29T14:55:37;25.80;1.00
29353;DHT22;16344;50.364;8.944;2023-07-29T14:58:03;26.00;1.00
29353;DHT22;16344;50.364;8.944;2023-07-29T15:00:29;26.10;1.00
29353;DHT22;16344;50.364;8.944;2023-07-29T15:02:54;26.40;1.00
29353;DHT22;16344;50.364;8.944;2023-07-29T15:05:20;26.40;1.00
29353;DHT22;16344;50.364;8.944;2023-07-29T15:10:22;26.10;1.00
29353;DHT22;16344;50.364;8.944;2023-07-29T15:12:48;26.10;1.00
29353;DHT22;16344;50.364;8.944;2023-07-29T15:15:13;25.90;1.00
29353;DHT22;16344;50.364;8.944;2023-07-29T15:17:39;25.50;1.00
29353;DHT22;16344;50.364;8.944;2023-07-29T15:20:05;25.30;1.00
29353;DHT22;16344;50.364;8.944;2023-07-29T15:22:30;25.30;8.50
29353;DHT22;16344;50.364;8.944;2023-07-29T15:24:59;25.20;19.00
29353;DHT22;16344;50.364;8.944;2023-07-29T15:27:29;25.30;2.30
29353;DHT22;16344;50.364;8.944;2023-07-29T15:29:55;25.30;1.00
29353;DHT22;16344;50.364;8.944;2023-07-29T15:32:20;25.30;1.00
29353;DHT22;16344;50.364;8.944;2023-07-29T15:34:47;25.30;4.10
29353;DHT22;16344;50.364;8.944;2023-07-29T15:37:13;25.40;1.00
29353;DHT22;16344;50.364;8.944;2023-07-29T15:39:38;25.50;1.00
29353;DHT22;16344;50.364;8.944;2023-07-29T15:42:04;25.50;1.00
29353;DHT22;16344;50.364;8.944;2023-07-29T15:44:29;25.60;1.00
29353;DHT22;16344;50.364;8.944;2023-07-29T15:46:55;25.50;1.00